sensor_id;sensor_type;location;lat;lon;timestamp;temperature;humidity
42913;DHT22;50720;54.324;18.558;2023-02-01T00:01:52;2.90;99.90
42913;DHT22;50720;54.324;18.558;2023-02-01T00:04:23;2.90;99.90
42913;DHT22;50720;54.324;18.558;2023-02-01T00:06:53;3.00;99.90
42913;DHT22;50720;54.324;18.558;2023-02-01T00:09:23;3.00;99.90
42913;DHT22;50720;54.324;18.558;2023-02-01T00:11:52;3.00;99.90
42913;DHT22;50720;54.324;18.558;2023-02-01T00:14:22;3.10;99.90
42913;DHT22;50720;54.324;18.558;2023-02-01T00:16:51;3.10;99.90
42913;DHT22;50720;54.324;18.558;2023-02-01T00:19:21;3.10;99.90
42913;DHT22;50720;54.324;18.558;2023-02-01T00:21:52;3.20;99.90
42913;DHT22;50720;54.324;18.558;2023-02-01T00:24:21;3.20;99.90
42913;DHT22;50720;54.324;18.558;2023-02-01T00:26:51;3.20;99.90
42913;DHT22;50720;54.324;18.558;2023-02-01T00:29:21;3.20;99.90
42913;DHT22;50720;54.324;18.558;2023-02-01T00:31:51;3.20;99.90
42913;DHT22;50720;54.324;18.558;2023-02-01T00:34:20;3.10;99.90
42913;DHT22;50720;54.324;18.558;2023-02-01T00:36:51;2.90;99.90
42913;DHT22;50720;54.324;18.558;2023-02-01T00:39:21;2.80;99.90
42913;DHT22;50720;54.324;18.558;2023-02-01T00:41:51;2.70;99.90
42913;DHT22;50720;54.324;18.558;2023-02-01T00:44:20;2.70;99.90
42913;DHT22;50720;54.324;18.558;2023-02-01T00:46:50;2.60;99.90
42913;DHT22;50720;54.324;18.558;2023-02-01T00:49:22;2.60;99.90
42913;DHT22;50720;54.324;18.558;2023-02-01T00:51:53;2.60;99.90
42913;DHT22;50720;54.324;18.558;2023-02-01T00:54:23;2.60;99.90
42913;DHT22;50720;54.324;18.558;2023-02-01T00:56:53;2.50;99.90
42913;DHT22;50720;54.324;18.558;2023-02-01T00:59:23;2.50;99.90
42913;DHT22;50720;54.324;18.558;2023-02-01T01:01:52;2.50;99.90
42913;DHT22;50720;54.324;18.558;2023-02-01T01:04:22;2.50;99.90
42913;DHT22;50720;54.324;18.558;2023-02-01T01:06:52;2.50;99.90
42913;DHT22;50720;54.324;18.558;2023-02-01T01:09:22;2.50;99.90
42913;DHT22;50720;54.324;18.558;2023-02-01T01:11:51;2.50;99.90
42913;DHT22;50720;54.324;18.558;2023-02-01T01:14:22;2.60;99.90
42913;DHT22;50720;54.324;18.558;2023-02-01T01:16:51;2.70;99.90
42913;DHT22;50720;54.324;18.558;2023-02-01T01:19:21;2.70;99.90
42913;DHT22;50720;54.324;18.558;2023-02-01T01:21:50;2.70;99.90
42913;DHT22;50720;54.324;18.558;2023-02-01T01:24:21;2.70;99.90
42913;DHT22;50720;54.324;18.558;2023-02-01T01:26:51;2.70;99.90
42913;DHT22;50720;54.324;18.558;2023-02-01T01:29:21;2.70;99.90
42913;DHT22;50720;54.324;18.558;2023-02-01T01:31:50;2.80;99.90
42913;DHT22;50720;54.324;18.558;2023-02-01T01:34:20;2.80;99.90
42913;DHT22;50720;54.324;18.558;2023-02-01T01:36:49;2.80;99.90
42913;DHT22;50720;54.324;18.558;2023-02-01T01:39:20;2.80;99.90
42913;DHT22;50720;54.324;18.558;2023-02-01T01:41:50;2.80;99.90
42913;DHT22;50720;54.324;18.558;2023-02-01T01:44:56;2.70;99.90
42913;DHT22;50720;54.324;18.558;2023-02-01T01:47:26;2.80;99.90
42913;DHT22;50720;54.324;18.558;2023-02-01T01:49:59;2.80;99.90
42913;DHT22;50720;54.324;18.558;2023-02-01T01:52:29;2.90;99.90
42913;DHT22;50720;54.324;18.558;2023-02-01T01:55:00;2.80;99.90
42913;DHT22;50720;54.324;18.558;2023-02-01T01:57:33;2.70;99.90
42913;DHT22;50720;54.324;18.558;2023-02-01T02:00:07;2.80;99.90
42913;DHT22;50720;54.324;18.558;2023-02-01T02:02:38;2.80;99.90
42913;DHT22;50720;54.324;18.558;2023-02-01T02:05:09;2.80;99.90
42913;DHT22;50720;54.324;18.558;2023-02-01T02:07:43;2.80;99.90
42913;DHT22;50720;54.324;18.558;2023-02-01T02:10:16;2.90;99.90
42913;DHT22;50720;54.324;18.558;2023-02-01T02:12:48;2.90;99.90
42913;DHT22;50720;54.324;18.558;2023-02-01T02:15:18;2.90;99.90
42913;DHT22;50720;54.324;18.558;2023-02-01T02:17:52;2.90;99.90
42913;DHT22;50720;54.324;18.558;2023-02-01T02:20:45;2.90;99.90
42913;DHT22;50720;54.324;18.558;2023-02-01T02:26:39;3.00;99.90
42913;DHT22;50720;54.324;18.558;2023-02-01T02:29:35;3.00;99.90
42913;DHT22;50720;54.324;18.558;2023-02-01T02:35:15;3.00;99.90
42913;DHT22;50720;54.324;18.558;2023-02-01T02:37:52;3.00;99.90
42913;DHT22;50720;54.324;18.558;2023-02-01T02:40:28;2.80;99.90
42913;DHT22;50720;54.324;18.558;2023-02-01T02:43:05;2.50;99.90
42913;DHT22;50720;54.324;18.558;2023-02-01T02:46:00;2.30;99.90
42913;DHT22;50720;54.324;18.558;2023-02-01T02:48:59;2.00;99.90
42913;DHT22;50720;54.324;18.558;2023-02-01T02:51:35;1.80;99.90
42913;DHT22;50720;54.324;18.558;2023-02-01T02:54:28;1.60;99.90
42913;DHT22;50720;54.324;18.558;2023-02-01T02:57:20;1.50;99.90
42913;DHT22;50720;54.324;18.558;2023-02-01T03:00:11;1.50;99.90
42913;DHT22;50720;54.324;18.558;2023-02-01T03:02:58;1.60;99.90
42913;DHT22;50720;54.324;18.558;2023-02-01T03:05:47;1.70;99.90
42913;DHT22;50720;54.324;18.558;2023-02-01T03:08:20;1.70;99.90
42913;DHT22;50720;54.324;18.558;2023-02-01T03:10:54;1.90;99.90
42913;DHT22;50720;54.324;18.558;2023-02-01T03:13:31;1.90;99.90
42913;DHT22;50720;54.324;18.558;2023-02-01T03:16:06;2.00;99.90
42913;DHT22;50720;54.324;18.558;2023-02-01T03:18:41;2.10;99.90
42913;DHT22;50720;54.324;18.558;2023-02-01T03:21:17;2.00;99.90
42913;DHT22;50720;54.324;18.558;2023-02-01T03:23:52;2.00;99.90
42913;DHT22;50720;54.324;18.558;2023-02-01T03:26:25;2.10;99.90
42913;DHT22;50720;54.324;18.558;2023-02-01T03:29:02;2.10;99.90
42913;DHT22;50720;54.324;18.558;2023-02-01T03:31:33;2.10;99.90
42913;DHT22;50720;54.324;18.558;2023-02-01T03:34:03;2.10;99.90
42913;DHT22;50720;54.324;18.558;2023-02-01T03:36:35;2.10;99.90
42913;DHT22;50720;54.324;18.558;2023-02-01T03:39:13;2.20;99.90
42913;DHT22;50720;54.324;18.558;2023-02-01T03:41:49;2.20;99.90
42913;DHT22;50720;54.324;18.558;2023-02-01T03:44:22;2.30;99.90
42913;DHT22;50720;54.324;18.558;2023-02-01T03:46:57;2.20;99.90
42913;DHT22;50720;54.324;18.558;2023-02-01T03:49:29;2.20;99.90
42913;DHT22;50720;54.324;18.558;2023-02-01T03:52:01;2.10;99.90
42913;DHT22;50720;54.324;18.558;2023-02-01T03:54:33;2.10;99.90
42913;DHT22;50720;54.324;18.558;2023-02-01T03:57:06;2.10;99.90
42913;DHT22;50720;54.324;18.558;2023-02-01T03:59:39;2.10;99.90
42913;DHT22;50720;54.324;18.558;2023-02-01T04:02:09;2.10;99.90
42913;DHT22;50720;54.324;18.558;2023-02-01T04:04:39;2.10;99.90
42913;DHT22;50720;54.324;18.558;2023-02-01T04:07:08;2.10;99.90
42913;DHT22;50720;54.324;18.558;2023-02-01T04:09:39;2.20;99.90
42913;DHT22;50720;54.324;18.558;2023-02-01T04:12:10;2.20;99.90
42913;DHT22;50720;54.324;18.558;2023-02-01T04:14:39;2.20;99.90
42913;DHT22;50720;54.324;18.558;2023-02-01T04:17:09;2.30;99.90
42913;DHT22;50720;54.324;18.558;2023-02-01T04:19:38;2.30;99.90
42913;DHT22;50720;54.324;18.558;2023-02-01T04:22:08;2.40;99.90
42913;DHT22;50720;54.324;18.558;2023-02-01T04:24:39;2.50;99.90
42913;DHT22;50720;54.324;18.558;2023-02-01T04:27:09;2.50;99.90
42913;DHT22;50720;54.324;18.558;2023-02-01T04:29:38;2.60;99.90
42913;DHT22;50720;54.324;18.558;2023-02-01T04:32:08;2.60;99.90
42913;DHT22;50720;54.324;18.558;2023-02-01T04:34:37;2.70;99.90
42913;DHT22;50720;54.324;18.558;2023-02-01T04:37:07;2.80;99.90
42913;DHT22;50720;54.324;18.558;2023-02-01T04:39:37;2.80;99.90
42913;DHT22;50720;54.324;18.558;2023-02-01T04:42:08;2.80;99.90
42913;DHT22;50720;54.324;18.558;2023-02-01T04:44:37;2.80;99.90
42913;DHT22;50720;54.324;18.558;2023-02-01T04:47:09;2.80;99.90
42913;DHT22;50720;54.324;18.558;2023-02-01T04:49:39;2.80;99.90
42913;DHT22;50720;54.324;18.558;2023-02-01T04:52:08;2.80;99.90
42913;DHT22;50720;54.324;18.558;2023-02-01T04:54:38;2.80;99.90
42913;DHT22;50720;54.324;18.558;2023-02-01T04:57:09;2.80;99.90
42913;DHT22;50720;54.324;18.558;2023-02-01T04:59:38;2.90;99.90
42913;DHT22;50720;54.324;18.558;2023-02-01T05:02:09;2.90;99.90
42913;DHT22;50720;54.324;18.558;2023-02-01T05:04:39;2.80;99.90
42913;DHT22;50720;54.324;18.558;2023-02-01T05:07:09;2.80;99.90
42913;DHT22;50720;54.324;18.558;2023-02-01T05:09:38;2.80;99.90
42913;DHT22;50720;54.324;18.558;2023-02-01T05:12:10;2.80;99.90
42913;DHT22;50720;54.324;18.558;2023-02-01T05:14:56;2.80;99.90
42913;DHT22;50720;54.324;18.558;2023-02-01T05:17:26;2.70;99.90
42913;DHT22;50720;54.324;18.558;2023-02-01T05:19:55;2.70;99.90
42913;DHT22;50720;54.324;18.558;2023-02-01T05:22:25;2.70;99.90
42913;DHT22;50720;54.324;18.558;2023-02-01T05:24:54;2.70;99.90
42913;DHT22;50720;54.324;18.558;2023-02-01T05:27:26;2.70;99.90
42913;DHT22;50720;54.324;18.558;2023-02-01T05:29:57;2.70;99.90
42913;DHT22;50720;54.324;18.558;2023-02-01T05:32:27;2.60;99.90
42913;DHT22;50720;54.324;18.558;2023-02-01T05:34:56;2.60;99.90
42913;DHT22;50720;54.324;18.558;2023-02-01T05:37:26;2.50;99.90
42913;DHT22;50720;54.324;18.558;2023-02-01T05:39:55;2.50;99.90
42913;DHT22;50720;54.324;18.558;2023-02-01T05:42:26;2.50;99.90
42913;DHT22;50720;54.324;18.558;2023-02-01T05:44:56;2.50;99.90
42913;DHT22;50720;54.324;18.558;2023-02-01T05:47:25;2.50;99.90
42913;DHT22;50720;54.324;18.558;2023-02-01T05:49:55;2.60;99.90
42913;DHT22;50720;54.324;18.558;2023-02-01T05:52:25;2.60;99.90
42913;DHT22;50720;54.324;18.558;2023-02-01T05:54:54;2.60;99.90
42913;DHT22;50720;54.324;18.558;2023-02-01T05:57:26;2.70;99.90
42913;DHT22;50720;54.324;18.558;2023-02-01T05:59:55;2.80;99.90
42913;DHT22;50720;54.324;18.558;2023-02-01T06:02:27;2.90;99.90
42913;DHT22;50720;54.324;18.558;2023-02-01T06:04:56;3.00;99.90
42913;DHT22;50720;54.324;18.558;2023-02-01T06:07:26;3.00;99.90
42913;DHT22;50720;54.324;18.558;2023-02-01T06:09:56;3.10;99.90
42913;DHT22;50720;54.324;18.558;2023-02-01T06:12:27;3.10;99.90
42913;DHT22;50720;54.324;18.558;2023-02-01T06:14:56;3.10;99.90
42913;DHT22;50720;54.324;18.558;2023-02-01T06:17:27;3.10;99.90
42913;DHT22;50720;54.324;18.558;2023-02-01T06:19:56;3.10;99.90
42913;DHT22;50720;54.324;18.558;2023-02-01T06:22:26;3.10;99.90
42913;DHT22;50720;54.324;18.558;2023-02-01T06:24:55;3.10;99.90
42913;DHT22;50720;54.324;18.558;2023-02-01T06:27:27;3.00;99.90
42913;DHT22;50720;54.324;18.558;2023-02-01T06:29:57;3.10;99.90
42913;DHT22;50720;54.324;18.558;2023-02-01T06:32:27;3.00;99.90
42913;DHT22;50720;54.324;18.558;2023-02-01T06:34:56;3.10;99.90
42913;DHT22;50720;54.324;18.558;2023-02-01T06:37:27;3.00;99.90
42913;DHT22;50720;54.324;18.558;2023-02-01T06:39:57;3.00;99.90
42913;DHT22;50720;54.324;18.558;2023-02-01T06:42:28;3.10;99.90
42913;DHT22;50720;54.324;18.558;2023-02-01T06:44:58;3.10;99.90
42913;DHT22;50720;54.324;18.558;2023-02-01T06:47:27;3.10;99.90
42913;DHT22;50720;54.324;18.558;2023-02-01T06:49:57;3.20;99.90
42913;DHT22;50720;54.324;18.558;2023-02-01T06:52:26;3.20;99.90
42913;DHT22;50720;54.324;18.558;2023-02-01T06:54:56;3.20;99.90
42913;DHT22;50720;54.324;18.558;2023-02-01T06:57:28;3.30;99.90
42913;DHT22;50720;54.324;18.558;2023-02-01T07:00:01;3.30;99.90
42913;DHT22;50720;54.324;18.558;2023-02-01T07:02:31;3.30;99.90
42913;DHT22;50720;54.324;18.558;2023-02-01T07:05:00;3.30;99.90
42913;DHT22;50720;54.324;18.558;2023-02-01T07:07:30;3.20;99.90
42913;DHT22;50720;54.324;18.558;2023-02-01T07:09:59;3.20;99.90
42913;DHT22;50720;54.324;18.558;2023-02-01T07:12:30;3.20;99.90
42913;DHT22;50720;54.324;18.558;2023-02-01T07:14:59;3.10;99.90
42913;DHT22;50720;54.324;18.558;2023-02-01T07:17:30;3.10;99.90
42913;DHT22;50720;54.324;18.558;2023-02-01T07:20:00;3.10;99.90
42913;DHT22;50720;54.324;18.558;2023-02-01T07:22:29;3.10;99.90
42913;DHT22;50720;54.324;18.558;2023-02-01T07:24:58;3.20;99.90
42913;DHT22;50720;54.324;18.558;2023-02-01T07:27:30;3.20;99.90
42913;DHT22;50720;54.324;18.558;2023-02-01T07:29:59;3.20;99.90
42913;DHT22;50720;54.324;18.558;2023-02-01T07:32:30;3.30;99.90
42913;DHT22;50720;54.324;18.558;2023-02-01T07:35:00;3.30;99.90
42913;DHT22;50720;54.324;18.558;2023-02-01T07:37:30;3.30;99.90
42913;DHT22;50720;54.324;18.558;2023-02-01T07:39:59;3.50;99.90
42913;DHT22;50720;54.324;18.558;2023-02-01T07:42:31;3.60;99.90
42913;DHT22;50720;54.324;18.558;2023-02-01T07:45:00;3.60;99.90
42913;DHT22;50720;54.324;18.558;2023-02-01T07:47:48;3.60;99.90
42913;DHT22;50720;54.324;18.558;2023-02-01T07:50:17;3.70;99.90
42913;DHT22;50720;54.324;18.558;2023-02-01T07:52:47;3.80;99.90
42913;DHT22;50720;54.324;18.558;2023-02-01T07:55:17;3.90;99.90
42913;DHT22;50720;54.324;18.558;2023-02-01T07:57:48;3.90;99.90
42913;DHT22;50720;54.324;18.558;2023-02-01T08:00:18;3.90;99.90
42913;DHT22;50720;54.324;18.558;2023-02-01T08:03:06;4.00;99.90
42913;DHT22;50720;54.324;18.558;2023-02-01T08:05:35;4.00;99.90
42913;DHT22;50720;54.324;18.558;2023-02-01T08:08:06;4.20;99.90
42913;DHT22;50720;54.324;18.558;2023-02-01T08:10:35;4.20;99.90
42913;DHT22;50720;54.324;18.558;2023-02-01T08:13:07;4.30;99.90
42913;DHT22;50720;54.324;18.558;2023-02-01T08:15:37;4.30;99.90
42913;DHT22;50720;54.324;18.558;2023-02-01T08:18:07;4.30;99.90
42913;DHT22;50720;54.324;18.558;2023-02-01T08:20:37;4.40;99.90
42913;DHT22;50720;54.324;18.558;2023-02-01T08:23:09;4.40;99.90
42913;DHT22;50720;54.324;18.558;2023-02-01T08:25:39;4.40;99.90
42913;DHT22;50720;54.324;18.558;2023-02-01T08:28:10;4.30;99.90
42913;DHT22;50720;54.324;18.558;2023-02-01T08:30:39;4.40;99.90
42913;DHT22;50720;54.324;18.558;2023-02-01T08:33:10;4.30;99.90
42913;DHT22;50720;54.324;18.558;2023-02-01T08:35:39;4.40;99.90
42913;DHT22;50720;54.324;18.558;2023-02-01T08:38:11;4.30;99.90
42913;DHT22;50720;54.324;18.558;2023-02-01T08:40:40;4.40;99.90
42913;DHT22;50720;54.324;18.558;2023-02-01T08:43:12;4.40;99.90
42913;DHT22;50720;54.324;18.558;2023-02-01T08:45:41;4.40;99.90
42913;DHT22;50720;54.324;18.558;2023-02-01T08:48:11;4.40;99.90
42913;DHT22;50720;54.324;18.558;2023-02-01T08:50:41;4.40;99.90
42913;DHT22;50720;54.324;18.558;2023-02-01T08:53:10;4.40;99.90
42913;DHT22;50720;54.324;18.558;2023-02-01T08:55:41;4.50;99.90
42913;DHT22;50720;54.324;18.558;2023-02-01T08:58:12;4.60;99.90
42913;DHT22;50720;54.324;18.558;2023-02-01T09:00:44;4.60;99.90
42913;DHT22;50720;54.324;18.558;2023-02-01T09:03:16;4.60;99.90
42913;DHT22;50720;54.324;18.558;2023-02-01T09:05:45;4.70;99.90
42913;DHT22;50720;54.324;18.558;2023-02-01T09:08:17;4.80;99.90
42913;DHT22;50720;54.324;18.558;2023-02-01T09:10:47;4.80;99.90
42913;DHT22;50720;54.324;18.558;2023-02-01T09:13:19;4.80;99.90
42913;DHT22;50720;54.324;18.558;2023-02-01T09:15:51;4.80;99.90
42913;DHT22;50720;54.324;18.558;2023-02-01T09:18:21;4.80;99.90
42913;DHT22;50720;54.324;18.558;2023-02-01T09:20:50;4.80;99.90
42913;DHT22;50720;54.324;18.558;2023-02-01T09:23:20;4.80;99.90
42913;DHT22;50720;54.324;18.558;2023-02-01T09:25:50;4.80;99.90
42913;DHT22;50720;54.324;18.558;2023-02-01T09:28:21;4.80;99.90
42913;DHT22;50720;54.324;18.558;2023-02-01T09:30:55;4.80;99.90
42913;DHT22;50720;54.324;18.558;2023-02-01T09:33:26;4.80;99.90
42913;DHT22;50720;54.324;18.558;2023-02-01T09:35:57;4.90;99.90
42913;DHT22;50720;54.324;18.558;2023-02-01T09:38:27;4.90;99.90
42913;DHT22;50720;54.324;18.558;2023-02-01T09:40:58;4.90;99.90
42913;DHT22;50720;54.324;18.558;2023-02-01T09:43:36;5.00;99.90
42913;DHT22;50720;54.324;18.558;2023-02-01T09:46:23;5.10;99.90
42913;DHT22;50720;54.324;18.558;2023-02-01T09:48:55;5.10;99.90
42913;DHT22;50720;54.324;18.558;2023-02-01T09:51:28;5.20;99.90
42913;DHT22;50720;54.324;18.558;2023-02-01T09:54:02;5.20;99.90
42913;DHT22;50720;54.324;18.558;2023-02-01T09:56:36;5.20;99.90
42913;DHT22;50720;54.324;18.558;2023-02-01T09:59:19;5.20;99.90
42913;DHT22;50720;54.324;18.558;2023-02-01T10:01:51;5.20;99.90
42913;DHT22;50720;54.324;18.558;2023-02-01T10:04:21;5.20;99.90
42913;DHT22;50720;54.324;18.558;2023-02-01T10:07:02;5.10;99.90
42913;DHT22;50720;54.324;18.558;2023-02-01T10:09:44;5.10;99.90
42913;DHT22;50720;54.324;18.558;2023-02-01T10:12:42;5.20;99.90
42913;DHT22;50720;54.324;18.558;2023-02-01T10:15:31;5.20;99.90
42913;DHT22;50720;54.324;18.558;2023-02-01T10:18:14;5.20;99.90
42913;DHT22;50720;54.324;18.558;2023-02-01T10:20:54;5.10;99.90
42913;DHT22;50720;54.324;18.558;2023-02-01T10:23:41;5.00;99.90
42913;DHT22;50720;54.324;18.558;2023-02-01T10:26:18;5.00;99.90
42913;DHT22;50720;54.324;18.558;2023-02-01T10:28:51;4.80;99.90
42913;DHT22;50720;54.324;18.558;2023-02-01T10:31:25;4.50;99.90
42913;DHT22;50720;54.324;18.558;2023-02-01T10:33:57;4.40;99.90
42913;DHT22;50720;54.324;18.558;2023-02-01T10:36:30;4.40;99.90
42913;DHT22;50720;54.324;18.558;2023-02-01T10:39:00;4.50;99.90
42913;DHT22;50720;54.324;18.558;2023-02-01T10:41:34;4.50;99.90
42913;DHT22;50720;54.324;18.558;2023-02-01T10:44:07;4.60;99.90
42913;DHT22;50720;54.324;18.558;2023-02-01T10:46:41;4.80;99.90
42913;DHT22;50720;54.324;18.558;2023-02-01T10:49:12;4.80;99.90
42913;DHT22;50720;54.324;18.558;2023-02-01T10:51:47;4.80;99.90
42913;DHT22;50720;54.324;18.558;2023-02-01T10:54:18;4.90;99.90
42913;DHT22;50720;54.324;18.558;2023-02-01T10:56:49;5.00;99.90
42913;DHT22;50720;54.324;18.558;2023-02-01T10:59:24;5.10;99.90
42913;DHT22;50720;54.324;18.558;2023-02-01T11:02:00;5.10;99.90
42913;DHT22;50720;54.324;18.558;2023-02-01T11:04:34;5.10;99.90
42913;DHT22;50720;54.324;18.558;2023-02-01T11:07:07;5.30;99.90
42913;DHT22;50720;54.324;18.558;2023-02-01T11:09:48;5.30;99.90
42913;DHT22;50720;54.324;18.558;2023-02-01T11:12:29;5.60;99.90
42913;DHT22;50720;54.324;18.558;2023-02-01T11:15:03;6.00;99.90
42913;DHT22;50720;54.324;18.558;2023-02-01T11:17:45;6.10;99.90
42913;DHT22;50720;54.324;18.558;2023-02-01T11:20:17;5.80;99.90
42913;DHT22;50720;54.324;18.558;2023-02-01T11:22:48;5.40;99.90
42913;DHT22;50720;54.324;18.558;2023-02-01T11:25:22;5.10;99.90
42913;DHT22;50720;54.324;18.558;2023-02-01T11:27:55;4.50;99.90
42913;DHT22;50720;54.324;18.558;2023-02-01T11:30:31;4.40;99.90
42913;DHT22;50720;54.324;18.558;2023-02-01T11:33:05;4.00;99.90
42913;DHT22;50720;54.324;18.558;2023-02-01T11:35:37;3.70;99.90
42913;DHT22;50720;54.324;18.558;2023-02-01T11:38:17;3.60;99.90
42913;DHT22;50720;54.324;18.558;2023-02-01T11:40:48;3.60;99.90
42913;DHT22;50720;54.324;18.558;2023-02-01T11:43:24;3.80;99.90
42913;DHT22;50720;54.324;18.558;2023-02-01T11:45:57;4.10;99.90
42913;DHT22;50720;54.324;18.558;2023-02-01T11:48:30;4.20;99.90
42913;DHT22;50720;54.324;18.558;2023-02-01T11:51:10;3.90;99.90
42913;DHT22;50720;54.324;18.558;2023-02-01T11:54:02;3.90;99.90
42913;DHT22;50720;54.324;18.558;2023-02-01T11:56:36;3.90;99.90
42913;DHT22;50720;54.324;18.558;2023-02-01T11:59:21;3.80;99.90
42913;DHT22;50720;54.324;18.558;2023-02-01T12:05:04;4.30;99.90
42913;DHT22;50720;54.324;18.558;2023-02-01T12:10:43;5.20;99.90
42913;DHT22;50720;54.324;18.558;2023-02-01T12:13:25;5.30;99.90
42913;DHT22;50720;54.324;18.558;2023-02-01T12:16:05;5.20;99.90
42913;DHT22;50720;54.324;18.558;2023-02-01T12:19:22;5.10;99.90
42913;DHT22;50720;54.324;18.558;2023-02-01T12:22:00;4.90;99.90
42913;DHT22;50720;54.324;18.558;2023-02-01T12:24:53;4.50;99.90
42913;DHT22;50720;54.324;18.558;2023-02-01T12:33:49;3.50;99.90
42913;DHT22;50720;54.324;18.558;2023-02-01T12:36:25;3.40;99.90
42913;DHT22;50720;54.324;18.558;2023-02-01T12:39:05;3.00;99.90
42913;DHT22;50720;54.324;18.558;2023-02-01T12:41:49;2.60;99.90
42913;DHT22;50720;54.324;18.558;2023-02-01T12:44:29;2.50;99.90
42913;DHT22;50720;54.324;18.558;2023-02-01T12:47:05;2.40;99.90
42913;DHT22;50720;54.324;18.558;2023-02-01T12:49:44;2.30;99.90
42913;DHT22;50720;54.324;18.558;2023-02-01T12:52:17;2.30;99.90
42913;DHT22;50720;54.324;18.558;2023-02-01T12:54:54;2.20;99.90
42913;DHT22;50720;54.324;18.558;2023-02-01T12:57:28;2.20;99.90
42913;DHT22;50720;54.324;18.558;2023-02-01T13:00:05;2.20;99.90
42913;DHT22;50720;54.324;18.558;2023-02-01T13:02:40;2.30;99.90
42913;DHT22;50720;54.324;18.558;2023-02-01T13:05:16;2.40;99.90
42913;DHT22;50720;54.324;18.558;2023-02-01T13:07:50;2.50;99.90
42913;DHT22;50720;54.324;18.558;2023-02-01T13:10:30;2.50;99.90
42913;DHT22;50720;54.324;18.558;2023-02-01T13:13:08;2.50;99.90
42913;DHT22;50720;54.324;18.558;2023-02-01T13:15:43;2.60;99.90
42913;DHT22;50720;54.324;18.558;2023-02-01T13:18:18;2.70;99.90
42913;DHT22;50720;54.324;18.558;2023-02-01T13:20:53;2.70;99.90
42913;DHT22;50720;54.324;18.558;2023-02-01T13:23:28;2.90;99.90
42913;DHT22;50720;54.324;18.558;2023-02-01T13:26:00;3.10;99.90
42913;DHT22;50720;54.324;18.558;2023-02-01T13:28:40;3.00;99.90
42913;DHT22;50720;54.324;18.558;2023-02-01T13:31:36;3.10;99.90
42913;DHT22;50720;54.324;18.558;2023-02-01T13:34:43;3.20;99.90
42913;DHT22;50720;54.324;18.558;2023-02-01T13:37:27;3.20;99.90
42913;DHT22;50720;54.324;18.558;2023-02-01T13:42:54;3.50;99.90
42913;DHT22;50720;54.324;18.558;2023-02-01T13:45:27;3.80;99.90
42913;DHT22;50720;54.324;18.558;2023-02-01T13:48:01;3.90;99.90
42913;DHT22;50720;54.324;18.558;2023-02-01T13:50:33;3.90;99.90
42913;DHT22;50720;54.324;18.558;2023-02-01T13:53:16;3.90;99.90
42913;DHT22;50720;54.324;18.558;2023-02-01T13:55:47;4.10;99.90
42913;DHT22;50720;54.324;18.558;2023-02-01T13:58:30;4.20;99.90
42913;DHT22;50720;54.324;18.558;2023-02-01T14:07:22;4.20;99.90
42913;DHT22;50720;54.324;18.558;2023-02-01T14:09:53;4.20;99.90
42913;DHT22;50720;54.324;18.558;2023-02-01T14:12:53;4.30;99.90
42913;DHT22;50720;54.324;18.558;2023-02-01T14:15:36;4.30;99.90
42913;DHT22;50720;54.324;18.558;2023-02-01T14:21:27;4.20;99.90
42913;DHT22;50720;54.324;18.558;2023-02-01T14:24:02;4.20;99.90
42913;DHT22;50720;54.324;18.558;2023-02-01T14:26:45;4.20;99.90
42913;DHT22;50720;54.324;18.558;2023-02-01T14:29:33;4.20;99.90
42913;DHT22;50720;54.324;18.558;2023-02-01T14:32:11;4.10;99.90
42913;DHT22;50720;54.324;18.558;2023-02-01T14:34:50;4.10;99.90
42913;DHT22;50720;54.324;18.558;2023-02-01T14:37:28;4.00;99.90
42913;DHT22;50720;54.324;18.558;2023-02-01T14:40:00;3.80;99.90
42913;DHT22;50720;54.324;18.558;2023-02-01T14:42:38;3.80;99.90
42913;DHT22;50720;54.324;18.558;2023-02-01T14:48:43;3.70;99.90
42913;DHT22;50720;54.324;18.558;2023-02-01T14:51:16;3.60;99.90
42913;DHT22;50720;54.324;18.558;2023-02-01T14:53:47;3.60;99.90
42913;DHT22;50720;54.324;18.558;2023-02-01T14:56:18;3.50;99.90
42913;DHT22;50720;54.324;18.558;2023-02-01T14:58:55;3.50;99.90
42913;DHT22;50720;54.324;18.558;2023-02-01T15:01:28;3.50;99.90
42913;DHT22;50720;54.324;18.558;2023-02-01T15:04:04;3.50;99.90
42913;DHT22;50720;54.324;18.558;2023-02-01T15:06:38;3.40;99.90
42913;DHT22;50720;54.324;18.558;2023-02-01T15:09:11;3.40;99.90
42913;DHT22;50720;54.324;18.558;2023-02-01T15:11:58;3.30;99.90
42913;DHT22;50720;54.324;18.558;2023-02-01T15:14:30;3.20;99.90
42913;DHT22;50720;54.324;18.558;2023-02-01T15:16:59;3.10;99.90
42913;DHT22;50720;54.324;18.558;2023-02-01T15:19:31;3.00;99.90
42913;DHT22;50720;54.324;18.558;2023-02-01T15:22:00;2.90;99.90
42913;DHT22;50720;54.324;18.558;2023-02-01T15:24:34;2.90;99.90
42913;DHT22;50720;54.324;18.558;2023-02-01T15:27:05;2.80;99.90
42913;DHT22;50720;54.324;18.558;2023-02-01T15:29:35;2.80;99.90
42913;DHT22;50720;54.324;18.558;2023-02-01T15:32:05;2.80;99.90
42913;DHT22;50720;54.324;18.558;2023-02-01T15:34:46;2.70;99.90
42913;DHT22;50720;54.324;18.558;2023-02-01T15:37:17;2.70;99.90
42913;DHT22;50720;54.324;18.558;2023-02-01T15:40:05;2.70;99.90
42913;DHT22;50720;54.324;18.558;2023-02-01T15:42:52;2.60;99.90
42913;DHT22;50720;54.324;18.558;2023-02-01T15:45:25;2.50;99.90
42913;DHT22;50720;54.324;18.558;2023-02-01T15:47:57;2.50;99.90
42913;DHT22;50720;54.324;18.558;2023-02-01T15:50:30;2.50;99.90
42913;DHT22;50720;54.324;18.558;2023-02-01T15:53:00;2.50;99.90
42913;DHT22;50720;54.324;18.558;2023-02-01T15:55:34;2.50;99.90
42913;DHT22;50720;54.324;18.558;2023-02-01T15:58:07;2.50;99.90
42913;DHT22;50720;54.324;18.558;2023-02-01T16:00:43;2.50;99.90
42913;DHT22;50720;54.324;18.558;2023-02-01T16:03:33;2.50;99.90
42913;DHT22;50720;54.324;18.558;2023-02-01T16:06:07;2.50;99.90
42913;DHT22;50720;54.324;18.558;2023-02-01T16:08:38;2.50;99.90
42913;DHT22;50720;54.324;18.558;2023-02-01T16:11:24;2.60;99.90
42913;DHT22;50720;54.324;18.558;2023-02-01T16:13:55;2.60;99.90
42913;DHT22;50720;54.324;18.558;2023-02-01T16:16:25;2.60;99.90
42913;DHT22;50720;54.324;18.558;2023-02-01T16:18:55;2.60;99.90
42913;DHT22;50720;54.324;18.558;2023-02-01T16:21:26;2.70;99.90
42913;DHT22;50720;54.324;18.558;2023-02-01T16:23:55;2.70;99.90
42913;DHT22;50720;54.324;18.558;2023-02-01T16:26:27;2.70;99.90
42913;DHT22;50720;54.324;18.558;2023-02-01T16:28:56;2.70;99.90
42913;DHT22;50720;54.324;18.558;2023-02-01T16:31:28;2.70;99.90
42913;DHT22;50720;54.324;18.558;2023-02-01T16:33:58;2.80;99.90
42913;DHT22;50720;54.324;18.558;2023-02-01T16:36:29;2.80;99.90
42913;DHT22;50720;54.324;18.558;2023-02-01T16:39:01;2.90;99.90
42913;DHT22;50720;54.324;18.558;2023-02-01T16:41:33;2.80;99.90
42913;DHT22;50720;54.324;18.558;2023-02-01T16:44:02;2.80;99.90
42913;DHT22;50720;54.324;18.558;2023-02-01T16:46:35;2.80;99.90